Time;durP1;ratioP1;P1;durP2;ratioP2;P2;SDS_P1;SDS_P2;PMS_P1;PMS_P2;Temp;Humidity;BMP_temperature;BMP_pressure;BME280_temperature;BME280_humidity;BME280_pressure;Samples;Min_cycle;Max_cycle;Signal;HPM_P1;HPM_P2
2024/04/02 04:01:22;;;;;;;7.30;5.55;;;8.80;99.90;;;;;;6238287;22;20284;-76
2024/04/02 04:03:49;;;;;;;7.35;5.50;;;8.80;99.90;;;;;;6303976;22;20279;-75
2024/04/02 04:06:15;;;;;;;10.23;7.13;;;8.90;99.90;;;;;;6304704;22;20229;-76
2024/04/02 04:08:41;;;;;;;7.40;6.35;;;8.90;99.90;;;;;;6303993;22;20651;-76
2024/04/02 04:11:08;;;;;;;9.07;7.90;;;8.90;99.90;;;;;;6303866;22;20196;-76
2024/04/02 04:13:33;;;;;;;9.02;7.25;;;8.90;99.90;;;;;;6303963;22;20176;-76
2024/04/02 04:16:02;;;;;;;7.70;6.00;;;8.90;99.90;;;;;;6304183;22;20700;-76
2024/04/02 04:18:30;;;;;;;9.82;5.75;;;8.90;99.90;;;;;;6304490;22;20259;-76
2024/04/02 04:20:57;;;;;;;10.18;8.50;;;8.90;99.90;;;;;;6313424;22;20200;-75
2024/04/02 04:23:25;;;;;;;10.10;6.50;;;8.90;99.90;;;;;;6304656;22;20234;-76
2024/04/02 04:25:55;;;;;;;19.80;8.40;;;8.90;99.90;;;;;;6303912;22;20722;-76
2024/04/02 04:28:22;;;;;;;6.15;5.57;;;8.90;99.90;;;;;;6304910;22;20258;-75
2024/04/02 04:30:52;;;;;;;7.45;6.53;;;8.90;99.90;;;;;;6304253;22;20218;-75
2024/04/02 04:33:19;;;;;;;8.55;6.28;;;8.80;99.90;;;;;;6303794;22;20164;-75
2024/04/02 04:35:46;;;;;;;8.60;5.75;;;8.70;99.90;;;;;;6306686;22;20176;-75
2024/04/02 04:38:13;;;;;;;10.50;7.00;;;8.60;99.90;;;;;;6306364;22;20249;-75
2024/04/02 04:40:39;;;;;;;12.68;7.45;;;8.60;99.90;;;;;;6305648;22;20225;-75
2024/04/02 04:43:06;;;;;;;8.27;7.05;;;8.60;99.90;;;;;;6306118;22;20206;-75
2024/04/02 04:45:32;;;;;;;10.98;6.97;;;8.60;99.90;;;;;;6306427;22;20271;-76
2024/04/02 04:47:59;;;;;;;14.50;6.93;;;8.60;99.90;;;;;;6305796;22;20277;-75
2024/04/02 04:50:25;;;;;;;8.23;6.63;;;8.60;99.90;;;;;;6306161;22;20222;-76
2024/04/02 04:52:54;;;;;;;7.33;5.60;;;8.60;99.90;;;;;;6304950;22;20808;-76
2024/04/02 04:55:19;;;;;;;7.72;6.20;;;8.70;99.90;;;;;;6305741;22;20652;-75
2024/04/02 04:57:46;;;;;;;10.70;5.93;;;8.70;99.90;;;;;;6306007;22;20195;-75
2024/04/02 05:00:12;;;;;;;6.53;5.90;;;8.80;99.90;;;;;;6305884;22;20182;-75
2024/04/02 05:02:39;;;;;;;10.02;6.93;;;8.80;99.90;;;;;;6305597;22;20206;-76
2024/04/02 05:05:06;;;;;;;11.10;7.57;;;8.70;99.90;;;;;;6306130;22;20191;-76
2024/04/02 05:07:33;;;;;;;6.55;5.85;;;8.70;99.90;;;;;;6304107;22;20635;-75
2024/04/02 05:10:00;;;;;;;8.23;7.20;;;8.70;99.90;;;;;;6305296;22;20176;-75
2024/04/02 05:12:27;;;;;;;9.13;7.20;;;8.70;99.90;;;;;;6304821;22;20691;-75
2024/04/02 05:14:52;;;;;;;10.00;6.78;;;8.70;99.90;;;;;;6306269;22;20176;-75
2024/04/02 05:17:19;;;;;;;7.27;5.23;;;8.70;99.90;;;;;;6305638;22;20660;-75
2024/04/02 05:19:45;;;;;;;11.93;5.90;;;8.80;99.90;;;;;;6305182;22;20180;-75
2024/04/02 05:22:12;;;;;;;6.70;5.37;;;8.70;99.90;;;;;;6306210;22;20257;-75
2024/04/02 05:24:38;;;;;;;8.57;5.65;;;8.80;99.90;;;;;;6316108;22;20172;-75
2024/04/02 05:27:06;;;;;;;14.20;6.70;;;8.80;99.90;;;;;;6305356;22;20514;-75
2024/04/02 05:29:32;;;;;;;6.30;5.53;;;8.90;99.90;;;;;;6315098;22;20195;-76
2024/04/02 05:31:58;;;;;;;7.77;6.97;;;8.80;99.90;;;;;;6305415;22;20498;-74
2024/04/02 05:34:24;;;;;;;6.55;5.57;;;8.90;99.90;;;;;;6303999;22;20186;-76
2024/04/02 05:36:51;;;;;;;7.57;5.80;;;8.90;99.90;;;;;;6313942;22;20176;-75
2024/04/02 05:39:17;;;;;;;6.97;6.35;;;9.00;99.90;;;;;;6304014;22;20414;-75
2024/04/02 05:41:43;;;;;;;6.40;5.20;;;9.00;99.90;;;;;;6302121;22;20211;-75
2024/04/02 05:44:10;;;;;;;10.73;6.05;;;9.00;99.90;;;;;;6303503;22;20187;-75
2024/04/02 05:46:37;;;;;;;13.93;5.40;;;9.10;99.90;;;;;;6302623;22;20709;-75
2024/04/02 05:49:03;;;;;;;8.63;6.80;;;9.10;99.90;;;;;;6303958;22;20180;-76
2024/04/02 05:51:30;;;;;;;7.27;4.47;;;9.10;99.90;;;;;;6303609;22;20202;-75
2024/04/02 05:53:55;;;;;;;4.00;3.75;;;9.10;99.90;;;;;;6304394;22;20194;-75
2024/04/02 05:56:22;;;;;;;7.40;4.90;;;9.10;99.90;;;;;;6303934;22;20514;-76
2024/04/02 05:58:48;;;;;;;7.22;6.53;;;9.10;99.90;;;;;;6304482;22;20509;-75
2024/04/02 06:01:16;;;;;;;5.90;5.43;;;9.10;99.90;;;;;;6302250;22;20204;-74
2024/04/02 06:03:42;;;;;;;5.97;5.40;;;9.10;99.90;;;;;;6303160;22;20203;-74
2024/04/02 06:06:08;;;;;;;6.53;5.93;;;9.10;99.90;;;;;;6304088;22;20172;-74
2024/04/02 06:08:34;;;;;;;13.30;5.60;;;9.20;99.90;;;;;;6303765;22;20414;-74
2024/04/02 06:11:04;;;;;;;7.80;6.22;;;9.30;99.90;;;;;;6302797;22;20408;-74
2024/04/02 06:13:30;;;;;;;11.73;5.57;;;9.30;99.90;;;;;;6302873;22;20186;-75
2024/04/02 06:15:57;;;;;;;5.40;4.90;;;9.30;99.90;;;;;;6303428;22;20251;-74
2024/04/02 06:18:24;;;;;;;6.03;5.03;;;9.30;99.90;;;;;;6304446;22;20272;-74
2024/04/02 06:20:58;;;;;;;5.05;4.00;;;9.30;99.90;;;;;;6303985;22;20199;-76
2024/04/02 06:23:23;;;;;;;6.35;3.63;;;9.30;99.90;;;;;;6304177;22;20184;-75
2024/04/02 06:25:50;;;;;;;5.60;5.13;;;9.30;99.90;;;;;;6304087;22;20598;-75
2024/04/02 06:28:16;;;;;;;4.07;3.78;;;9.30;99.90;;;;;;6304148;22;20531;-74
2024/04/02 06:30:43;;;;;;;5.47;4.97;;;9.40;99.90;;;;;;6304870;22;20191;-73
2024/04/02 06:33:09;;;;;;;5.68;3.65;;;9.40;99.90;;;;;;6304110;22;20493;-73
2024/04/02 06:35:37;;;;;;;3.50;3.23;;;9.40;99.90;;;;;;6304793;22;20195;-72
2024/04/02 06:38:03;;;;;;;3.45;3.30;;;9.50;99.90;;;;;;6304604;22;20425;-72
2024/04/02 06:40:30;;;;;;;8.13;4.00;;;9.50;99.90;;;;;;6305092;22;20697;-72
2024/04/02 06:42:56;;;;;;;4.60;4.30;;;9.50;99.90;;;;;;6304729;22;20222;-72
2024/04/02 06:45:22;;;;;;;4.70;4.30;;;9.50;99.90;;;;;;6304009;22;20569;-73
2024/04/02 06:47:51;;;;;;;5.32;3.65;;;9.50;99.90;;;;;;6304256;22;20199;-73
2024/04/02 06:50:17;;;;;;;3.78;3.22;;;9.60;99.90;;;;;;6304007;22;20231;-72
2024/04/02 06:52:44;;;;;;;4.45;3.83;;;9.60;99.90;;;;;;6303684;22;20215;-72
2024/04/02 06:55:11;;;;;;;4.07;3.20;;;9.50;99.90;;;;;;6304300;22;20552;-73
2024/04/02 06:57:37;;;;;;;4.07;3.78;;;9.60;99.90;;;;;;6303616;22;20176;-73
2024/04/02 07:00:06;;;;;;;4.73;4.17;;;9.60;99.90;;;;;;6302964;22;20462;-72
2024/04/02 07:02:31;;;;;;;3.15;2.95;;;9.60;99.90;;;;;;6302025;22;20230;-73
2024/04/02 07:04:58;;;;;;;3.50;3.30;;;9.70;99.90;;;;;;6303414;22;20179;-73
2024/04/02 07:07:24;;;;;;;3.40;3.10;;;9.70;99.90;;;;;;6303388;22;20183;-73
2024/04/02 07:09:52;;;;;;;5.00;2.73;;;9.70;99.90;;;;;;6305069;22;20334;-72
2024/04/02 07:12:18;;;;;;;2.88;2.67;;;9.70;99.90;;;;;;6305113;22;20433;-73
2024/04/02 07:14:44;;;;;;;3.20;2.93;;;9.70;99.90;;;;;;6305455;22;20194;-73
2024/04/02 07:17:10;;;;;;;3.13;2.75;;;9.70;99.90;;;;;;6304652;22;20176;-73
2024/04/02 07:19:37;;;;;;;3.10;2.90;;;9.80;99.90;;;;;;6307388;22;20178;-73
2024/04/02 07:22:03;;;;;;;2.75;2.65;;;9.80;99.90;;;;;;6306238;22;20500;-73
2024/04/02 07:24:30;;;;;;;8.30;4.00;;;9.90;99.90;;;;;;6305461;22;20178;-73
2024/04/02 07:26:57;;;;;;;5.53;3.40;;;10.00;99.90;;;;;;6304722;22;20267;-75
2024/04/02 07:29:24;;;;;;;2.20;2.10;;;10.10;99.90;;;;;;6303155;22;20199;-75
2024/04/02 07:31:49;;;;;;;3.25;3.03;;;10.10;99.90;;;;;;6303509;22;20306;-75
2024/04/02 07:34:16;;;;;;;3.33;2.77;;;10.20;99.90;;;;;;6302114;22;20172;-75
2024/04/02 07:36:44;;;;;;;2.47;2.28;;;10.20;99.90;;;;;;6303016;22;20234;-75
2024/04/02 07:39:11;;;;;;;3.17;3.08;;;10.20;99.90;;;;;;6302766;22;20507;-75
2024/04/02 07:41:36;;;;;;;4.97;2.70;;;10.30;99.90;;;;;;6302152;22;20222;-75
2024/04/02 07:44:05;;;;;;;11.03;3.07;;;10.30;99.90;;;;;;6298145;22;20643;-75
2024/04/02 07:46:30;;;;;;;3.42;3.22;;;10.20;99.90;;;;;;6302468;22;20175;-75
2024/04/02 07:48:57;;;;;;;5.13;3.23;;;10.20;99.90;;;;;;6301226;22;20198;-75
2024/04/02 07:51:23;;;;;;;11.02;3.28;;;10.30;99.90;;;;;;6301619;22;20215;-76
2024/04/02 07:53:50;;;;;;;3.30;3.20;;;10.30;99.90;;;;;;6302894;22;20264;-75
2024/04/02 07:56:15;;;;;;;3.70;3.60;;;10.40;99.90;;;;;;6300859;22;20184;-75
2024/04/02 07:58:42;;;;;;;6.37;4.97;;;10.50;99.90;;;;;;6298524;22;20187;-75
2024/04/02 08:01:09;;;;;;;5.30;3.55;;;10.50;99.90;;;;;;6301762;22;20706;-75
2024/04/02 08:03:36;;;;;;;2.90;2.75;;;10.50;99.90;;;;;;6312187;22;20208;-75
2024/04/02 08:06:02;;;;;;;2.83;2.73;;;10.60;99.90;;;;;;6301775;22;20188;-75
2024/04/02 08:08:28;;;;;;;3.88;3.58;;;10.60;99.90;;;;;;6302317;22;20421;-75
2024/04/02 08:10:54;;;;;;;3.63;3.33;;;10.60;99.90;;;;;;6304593;22;20252;-75
2024/04/02 08:13:21;;;;;;;2.73;2.63;;;10.60;99.90;;;;;;6303601;22;20739;-76
2024/04/02 08:15:47;;;;;;;3.42;3.20;;;10.60;99.90;;;;;;6305314;22;20183;-75
2024/04/02 08:18:15;;;;;;;3.70;3.40;;;10.60;99.90;;;;;;6304367;22;20176;-75
2024/04/02 08:20:41;;;;;;;3.13;2.20;;;10.70;99.90;;;;;;6303325;22;20448;-75
2024/04/02 08:23:08;;;;;;;2.83;2.72;;;10.80;99.90;;;;;;6314121;22;20196;-75
2024/04/02 08:25:35;;;;;;;3.22;2.67;;;10.80;99.90;;;;;;6305086;22;20248;-74
2024/04/02 08:28:02;;;;;;;2.63;2.53;;;10.90;99.90;;;;;;6304716;22;20611;-75
2024/04/02 08:30:28;;;;;;;3.30;3.10;;;10.90;99.90;;;;;;6304647;22;20444;-75
2024/04/02 08:32:55;;;;;;;2.87;2.73;;;10.90;99.90;;;;;;6305236;22;20251;-75
2024/04/02 08:35:22;;;;;;;4.15;2.60;;;10.90;99.90;;;;;;6303996;22;20180;-75
2024/04/02 08:37:48;;;;;;;2.80;2.70;;;10.90;99.90;;;;;;6305142;22;20176;-75
2024/04/02 08:40:14;;;;;;;2.33;2.33;;;11.00;99.90;;;;;;6305463;22;20688;-75
2024/04/02 08:42:42;;;;;;;3.20;2.90;;;11.10;99.90;;;;;;6305435;22;20196;-75
2024/04/02 08:45:09;;;;;;;2.30;2.13;;;11.20;99.90;;;;;;6305116;22;20421;-75
2024/04/02 08:47:38;;;;;;;2.47;2.33;;;11.30;99.90;;;;;;6305033;22;20402;-75
2024/04/02 08:50:06;;;;;;;3.43;3.07;;;11.50;99.90;;;;;;6304743;22;21127;-75
2024/04/02 08:52:35;;;;;;;3.60;2.20;;;11.70;99.90;;;;;;6305089;22;20521;-72
2024/04/02 08:55:01;;;;;;;2.90;2.70;;;12.00;99.90;;;;;;6305324;22;20423;-74
2024/04/02 08:57:28;;;;;;;3.30;1.73;;;12.10;99.90;;;;;;6304247;22;20525;-74
2024/04/02 08:59:56;;;;;;;4.57;2.60;;;12.10;99.90;;;;;;6304716;22;20421;-74
2024/04/02 09:02:24;;;;;;;2.33;2.33;;;12.20;99.90;;;;;;6303736;22;20848;-74
2024/04/02 09:04:52;;;;;;;2.47;2.37;;;12.20;99.90;;;;;;6305026;22;20414;-75
2024/04/02 09:07:19;;;;;;;2.20;2.20;;;12.10;99.90;;;;;;6304332;22;20492;-75
2024/04/02 09:09:46;;;;;;;2.20;2.07;;;12.10;99.90;;;;;;6304664;22;20414;-74
2024/04/02 09:12:13;;;;;;;2.17;2.07;;;12.10;99.90;;;;;;6304043;22;20450;-74
2024/04/02 09:14:38;;;;;;;2.23;2.23;;;12.10;99.90;;;;;;6303601;22;20418;-73
2024/04/02 09:17:08;;;;;;;6.37;1.90;;;12.00;99.90;;;;;;6303851;22;20424;-73
2024/04/02 09:19:35;;;;;;;2.10;2.10;;;12.00;99.90;;;;;;6303547;22;20167;-73
2024/04/02 09:22:01;;;;;;;1.70;1.63;;;12.00;99.90;;;;;;6305716;22;20448;-73
2024/04/02 09:24:27;;;;;;;2.40;2.30;;;12.00;99.90;;;;;;6301325;22;20214;-73
2024/04/02 09:26:56;;;;;;;1.73;1.60;;;12.00;99.90;;;;;;6302235;22;20584;-73
2024/04/02 09:29:22;;;;;;;1.83;1.67;;;12.00;99.90;;;;;;6304071;22;20771;-73
2024/04/02 09:31:51;;;;;;;1.40;1.30;;;12.00;99.90;;;;;;6304685;22;20806;-73
2024/04/02 09:34:21;;;;;;;1.67;1.67;;;12.10;99.90;;;;;;6302089;22;20403;-74
2024/04/02 09:36:48;;;;;;;1.73;1.63;;;12.30;99.90;;;;;;6314015;22;20500;-74
2024/04/02 09:39:15;;;;;;;4.20;1.50;;;12.20;99.90;;;;;;6304376;22;20418;-75
2024/04/02 09:41:43;;;;;;;1.63;1.63;;;12.30;99.90;;;;;;6303875;22;20437;-74
2024/04/02 09:44:13;;;;;;;1.47;1.33;;;12.40;99.90;;;;;;6313845;22;20489;-74
2024/04/02 09:46:42;;;;;;;2.07;1.97;;;12.50;99.90;;;;;;6303028;22;20407;-74
2024/04/02 09:49:10;;;;;;;2.10;1.30;;;12.50;99.90;;;;;;6304757;22;20497;-74
2024/04/02 09:51:39;;;;;;;1.50;1.40;;;12.50;99.90;;;;;;6304626;22;20469;-74
2024/04/02 09:54:05;;;;;;;3.00;2.70;;;12.50;99.90;;;;;;6304339;22;20415;-74
2024/04/02 09:56:33;;;;;;;1.23;1.23;;;12.60;99.90;;;;;;6304684;22;20418;-75
2024/04/02 09:59:00;;;;;;;1.53;1.47;;;12.60;99.90;;;;;;6304416;22;20414;-74
2024/04/02 10:01:31;;;;;;;1.33;1.33;;;12.60;99.90;;;;;;6304693;22;20515;-73
2024/04/02 10:04:01;;;;;;;1.37;1.27;;;12.70;99.90;;;;;;6306863;22;20426;-73
2024/04/02 10:07:20;;;;;;;3.90;1.63;;;12.80;99.90;;;;;;5187856;27;20553;-71
2024/04/02 10:09:56;;;;;;;2.20;1.30;;;12.80;99.90;;;;;;5168107;27;20483;-71
2024/04/02 10:12:26;;;;;;;1.40;1.40;;;12.90;99.90;;;;;;5164081;27;20447;-71
2024/04/02 10:14:52;;;;;;;1.37;1.37;;;12.90;99.90;;;;;;5162118;27;20494;-72
2024/04/02 10:17:19;;;;;;;1.70;1.30;;;13.10;99.90;;;;;;5168124;27;20455;-72
2024/04/02 10:19:46;;;;;;;3.10;1.63;;;13.10;99.90;;;;;;5164214;27;20590;-74
2024/04/02 10:22:26;;;;;;;1.43;1.33;;;13.20;99.90;;;;;;5171106;27;20896;-72
2024/04/02 10:25:03;;;;;;;2.30;2.10;;;13.20;99.90;;;;;;5164225;27;20546;-72
2024/04/02 10:27:34;;;;;;;1.33;1.33;;;13.40;99.90;;;;;;5165519;27;20564;-73
2024/04/02 10:30:00;;;;;;;1.30;1.30;;;13.70;99.90;;;;;;5160844;27;20468;-72
2024/04/02 10:32:30;;;;;;;3.20;1.90;;;13.90;99.90;;;;;;5160409;27;20471;-72
2024/04/02 10:34:56;;;;;;;2.90;1.83;;;13.90;99.90;;;;;;5160615;27;21031;-72
2024/04/02 10:37:24;;;;;;;1.47;1.33;;;13.90;99.90;;;;;;5169382;27;20456;-76
2024/04/02 10:39:51;;;;;;;1.23;1.17;;;14.00;99.90;;;;;;5165011;27;20460;-73
2024/04/02 10:42:19;;;;;;;1.50;1.40;;;14.30;99.90;;;;;;5169563;27;20447;-73
2024/04/02 10:44:45;;;;;;;1.90;1.80;;;14.60;99.90;;;;;;5171164;27;20577;-72
2024/04/02 10:47:18;;;;;;;1.43;1.33;;;14.70;99.90;;;;;;5169548;27;20459;-72
2024/04/02 10:49:47;;;;;;;2.00;1.50;;;14.70;99.90;;;;;;5167113;27;20559;-72
2024/04/02 10:52:15;;;;;;;1.60;1.50;;;14.70;99.90;;;;;;5168559;27;20454;-72
2024/04/02 10:54:42;;;;;;;1.30;1.30;;;14.60;99.90;;;;;;5168113;27;20520;-72
2024/04/02 10:57:09;;;;;;;1.70;1.70;;;14.70;99.90;;;;;;5168674;27;20466;-73
2024/04/02 10:59:36;;;;;;;1.63;1.53;;;14.40;99.90;;;;;;5169502;27;20486;-73
2024/04/02 11:02:12;;;;;;;1.43;1.43;;;14.20;99.90;;;;;;5170367;27;20933;-72
2024/04/02 11:04:39;;;;;;;2.73;1.33;;;14.00;99.90;;;;;;5169528;27;20545;-71
2024/04/02 11:07:10;;;;;;;1.30;1.30;;;13.80;99.90;;;;;;5168983;27;20874;-72
2024/04/02 11:09:37;;;;;;;2.03;1.87;;;13.70;99.90;;;;;;5169407;27;20455;-72
2024/04/02 11:12:08;;;;;;;1.53;1.53;;;13.90;99.90;;;;;;5168621;27;20451;-72
2024/04/02 11:14:35;;;;;;;1.50;1.50;;;14.00;99.90;;;;;;5166206;27;20559;-72
2024/04/02 11:17:02;;;;;;;1.40;1.30;;;14.00;99.90;;;;;;5158794;27;20495;-72
2024/04/02 11:19:28;;;;;;;1.50;1.40;;;13.90;99.90;;;;;;5144273;27;20491;-72
2024/04/02 11:25:03;;;;;;;2.83;1.50;;;13.90;99.90;;;;;;5146676;27;20552;-74
2024/04/02 11:27:31;;;;;;;1.60;1.50;;;14.00;99.90;;;;;;5152096;27;20464;-72
2024/04/02 11:29:59;;;;;;;1.60;1.60;;;14.20;99.90;;;;;;5152666;27;20489;-72
2024/04/02 11:32:25;;;;;;;2.73;1.27;;;14.30;99.90;;;;;;5153130;27;20467;-72
2024/04/02 11:34:57;;;;;;;1.57;1.50;;;14.30;99.90;;;;;;5152041;27;20487;-72
2024/04/02 11:37:23;;;;;;;1.10;1.10;;;14.20;99.90;;;;;;5151565;27;20457;-72
2024/04/02 11:39:50;;;;;;;1.80;1.70;;;14.00;99.90;;;;;;5146125;27;20928;-73
2024/04/02 11:42:16;;;;;;;2.37;2.27;;;13.90;99.90;;;;;;5153262;27;20809;-72
2024/04/02 11:44:44;;;;;;;5.17;3.03;;;13.90;99.90;;;;;;5152555;27;20798;-72
2024/04/02 11:47:13;;;;;;;1.70;1.70;;;13.80;99.90;;;;;;5150703;27;20555;-72
2024/04/02 11:49:40;;;;;;;1.37;1.30;;;13.80;99.90;;;;;;5152717;27;20520;-71
2024/04/02 11:52:06;;;;;;;141.83;38.10;;;13.70;99.90;;;;;;5153180;27;20452;-72
2024/04/02 11:54:34;;;;;;;7.20;5.53;;;13.60;99.90;;;;;;5159383;27;20771;-72
2024/04/02 12:02:31;;;;;;;2.00;1.90;;;13.20;99.90;;;;;;5151805;27;20443;-70
2024/04/02 12:04:58;;;;;;;1.80;1.70;;;12.90;99.90;;;;;;5153138;27;20521;-77
2024/04/02 12:07:25;;;;;;;4.03;1.60;;;12.70;99.90;;;;;;5153558;27;20472;-76
2024/04/02 12:09:55;;;;;;;1.97;1.80;;;12.40;99.90;;;;;;5150959;27;20622;-72
2024/04/02 12:12:22;;;;;;;2.37;2.27;;;12.20;99.90;;;;;;5155193;27;21047;-73
2024/04/02 12:14:49;;;;;;;3.40;2.47;;;12.20;99.90;;;;;;5151332;27;21093;-74
2024/04/02 12:17:16;;;;;;;2.73;2.53;;;12.30;99.90;;;;;;5154109;27;20477;-74
2024/04/02 12:19:42;;;;;;;2.20;2.10;;;12.40;99.90;;;;;;5152892;27;20463;-74
2024/04/02 12:22:11;;;;;;;2.47;2.30;;;12.40;99.90;;;;;;5152711;27;20455;-73
2024/04/02 12:24:38;;;;;;;2.67;2.50;;;12.40;99.90;;;;;;5152019;27;20532;-73
2024/04/02 12:27:05;;;;;;;2.90;2.70;;;12.40;99.90;;;;;;5150065;27;20488;-73
2024/04/02 12:29:31;;;;;;;2.07;2.07;;;12.30;99.90;;;;;;5148715;27;20499;-74
2024/04/02 12:32:00;;;;;;;1.50;1.50;;;12.30;99.90;;;;;;5145364;27;20456;-74
2024/04/02 12:34:27;;;;;;;1.90;1.27;;;12.30;99.90;;;;;;5145212;27;20514;-73
2024/04/02 12:36:54;;;;;;;2.27;2.27;;;12.30;99.90;;;;;;5143676;27;20463;-74
2024/04/02 12:39:20;;;;;;;1.73;1.73;;;12.30;99.90;;;;;;5147085;27;20464;-73
2024/04/02 12:41:49;;;;;;;2.20;2.00;;;12.30;99.90;;;;;;5150711;27;20496;-72
2024/04/02 12:44:15;;;;;;;3.83;3.00;;;12.30;99.90;;;;;;5146273;27;20475;-73
2024/04/02 12:46:42;;;;;;;1.83;1.83;;;12.40;99.90;;;;;;5151646;27;20536;-73
2024/04/02 12:49:11;;;;;;;1.83;1.73;;;12.40;99.90;;;;;;5145180;27;20889;-73
2024/04/02 12:51:38;;;;;;;1.57;1.47;;;12.30;99.90;;;;;;5150318;27;20552;-73
2024/04/02 12:54:04;;;;;;;1.90;1.80;;;12.20;99.90;;;;;;5148706;27;20472;-72
2024/04/02 12:56:32;;;;;;;2.47;2.37;;;12.30;99.90;;;;;;5146038;27;20463;-73
2024/04/02 12:58:58;;;;;;;3.63;2.30;;;12.30;99.90;;;;;;5149690;27;20654;-73
2024/04/02 13:01:25;;;;;;;2.10;2.00;;;12.40;99.90;;;;;;5145411;27;20547;-73
2024/04/02 13:03:52;;;;;;;2.63;2.53;;;12.50;99.90;;;;;;5140260;27;20967;-72
2024/04/02 13:06:20;;;;;;;1.90;1.90;;;12.40;99.90;;;;;;5146574;27;20487;-72
2024/04/02 13:08:47;;;;;;;1.83;1.73;;;12.30;99.90;;;;;;5147741;27;20471;-72
2024/04/02 13:11:15;;;;;;;2.40;1.83;;;12.20;99.90;;;;;;5151229;27;20489;-72
2024/04/02 13:13:42;;;;;;;2.20;1.90;;;12.00;99.90;;;;;;5149932;27;20484;-72
2024/04/02 13:16:30;;;;;;;2.37;2.27;;;12.00;99.90;;;;;;5145591;27;20495;-72
2024/04/02 13:19:00;;;;;;;1.70;1.30;;;11.90;99.90;;;;;;5149030;27;20528;-72
2024/04/02 13:21:28;;;;;;;1.27;1.27;;;11.80;99.90;;;;;;5148870;27;20947;-71
2024/04/02 13:23:56;;;;;;;1.10;1.10;;;11.80;99.90;;;;;;5146873;27;20558;-72
2024/04/02 13:26:24;;;;;;;2.00;1.90;;;11.80;99.90;;;;;;5144609;27;20587;-71
2024/04/02 13:28:52;;;;;;;3.80;1.93;;;11.80;99.90;;;;;;5147357;27;20289;-72
2024/04/02 13:31:20;;;;;;;1.67;1.57;;;11.80;99.90;;;;;;5149159;27;20485;-71
2024/04/02 13:33:47;;;;;;;1.80;1.70;;;11.90;99.90;;;;;;5151878;27;20989;-71
2024/04/02 13:36:15;;;;;;;3.40;2.43;;;11.90;99.90;;;;;;5146614;27;20493;-72
2024/04/02 13:38:45;;;;;;;2.83;2.37;;;12.00;99.90;;;;;;5143328;27;20448;-72
2024/04/02 13:41:13;;;;;;;2.60;2.47;;;12.10;99.90;;;;;;5146393;27;20464;-71
2024/04/02 13:43:38;;;;;;;3.77;2.83;;;12.10;99.90;;;;;;5146239;27;20599;-71
2024/04/02 13:46:06;;;;;;;2.33;2.10;;;12.20;99.90;;;;;;5149530;27;20574;-71
2024/04/02 13:48:33;;;;;;;1.63;1.63;;;12.30;99.90;;;;;;5151059;27;20594;-71
2024/04/02 13:51:05;;;;;;;2.97;2.80;;;12.40;99.90;;;;;;5148159;27;20460;-71
2024/04/02 13:53:31;;;;;;;2.67;2.50;;;12.50;99.90;;;;;;5144830;27;20460;-71
2024/04/02 13:56:00;;;;;;;2.13;2.03;;;12.60;99.90;;;;;;5141490;27;20532;-72
2024/04/02 13:58:27;;;;;;;7.73;2.73;;;12.70;99.90;;;;;;5148678;27;20876;-71
2024/04/02 14:00:54;;;;;;;3.67;3.03;;;12.70;99.90;;;;;;5150792;27;20586;-72
2024/04/02 14:03:21;;;;;;;2.30;2.20;;;12.70;99.90;;;;;;5145894;27;20518;-71
2024/04/02 14:05:55;;;;;;;2.47;1.77;;;12.60;99.90;;;;;;5147952;27;21093;-71
2024/04/02 14:08:21;;;;;;;2.50;1.17;;;12.60;99.90;;;;;;5144715;27;20540;-71
2024/04/02 14:10:48;;;;;;;1.70;1.67;;;12.50;99.90;;;;;;5147076;27;20492;-72
2024/04/02 14:13:17;;;;;;;1.57;1.47;;;12.40;99.90;;;;;;5149504;27;21022;-70
2024/04/02 14:15:44;;;;;;;2.20;2.07;;;12.40;99.90;;;;;;5151898;27;20839;-72
2024/04/02 14:18:10;;;;;;;1.80;1.37;;;12.30;99.90;;;;;;5140968;27;21058;-71
2024/04/02 14:20:37;;;;;;;5.93;2.40;;;12.40;99.90;;;;;;5151355;27;20846;-71
2024/04/02 14:23:05;;;;;;;3.23;1.80;;;12.40;99.90;;;;;;5149682;27;21042;-71
2024/04/02 14:25:32;;;;;;;1.20;1.20;;;12.50;99.90;;;;;;5148598;27;20475;-71
2024/04/02 14:27:58;;;;;;;1.90;1.80;;;12.60;99.90;;;;;;5148102;27;20539;-71
2024/04/02 14:30:26;;;;;;;1.30;1.30;;;12.60;99.90;;;;;;5146863;27;20466;-70
2024/04/02 14:32:52;;;;;;;1.70;1.60;;;12.70;99.90;;;;;;5150273;27;20479;-71
2024/04/02 14:35:19;;;;;;;1.83;1.83;;;12.90;99.90;;;;;;5153214;27;20467;-70
2024/04/02 14:37:45;;;;;;;2.90;1.87;;;13.00;99.90;;;;;;5149494;27;20520;-72
2024/04/02 14:40:12;;;;;;;1.60;1.60;;;13.10;99.90;;;;;;5148361;27;20907;-70
2024/04/02 14:42:38;;;;;;;1.43;1.43;;;13.10;99.90;;;;;;5148058;27;20538;-72
2024/04/02 14:45:06;;;;;;;2.50;1.33;;;13.10;99.90;;;;;;5148173;27;20901;-72
2024/04/02 14:47:33;;;;;;;1.63;1.50;;;13.10;99.90;;;;;;5148450;27;20665;-70
2024/04/02 14:50:00;;;;;;;1.70;1.33;;;13.10;99.90;;;;;;5145279;27;20479;-72
2024/04/02 14:52:26;;;;;;;1.80;1.10;;;13.10;99.90;;;;;;5149864;27;20905;-71
2024/04/02 14:54:53;;;;;;;1.43;1.33;;;13.10;99.90;;;;;;5151358;27;20506;-72
2024/04/02 14:57:19;;;;;;;1.80;1.27;;;13.10;99.90;;;;;;5151635;27;20963;-71
2024/04/02 14:59:49;;;;;;;0.83;0.83;;;13.10;99.90;;;;;;5148687;27;20450;-71
2024/04/02 15:02:17;;;;;;;1.00;1.00;;;13.30;99.90;;;;;;5152848;27;20516;-71
2024/04/02 15:04:45;;;;;;;0.90;0.90;;;13.40;99.90;;;;;;5150401;27;20848;-71
2024/04/02 15:07:11;;;;;;;0.80;0.80;;;13.40;99.90;;;;;;5147699;27;21020;-71
2024/04/02 15:09:38;;;;;;;0.90;0.90;;;13.50;99.90;;;;;;5148242;27;20464;-72
2024/04/02 15:12:04;;;;;;;0.93;0.93;;;13.50;99.90;;;;;;5147424;27;20809;-69
2024/04/02 15:14:31;;;;;;;1.00;1.00;;;13.40;99.90;;;;;;5145417;27;20468;-71
2024/04/02 15:16:57;;;;;;;1.13;0.77;;;13.40;99.90;;;;;;5148619;27;20535;-71
2024/04/02 15:19:24;;;;;;;5.20;1.20;;;13.50;99.90;;;;;;5148967;27;20448;-72
2024/04/02 15:21:52;;;;;;;1.47;1.37;;;13.50;99.90;;;;;;5153659;27;20568;-71
2024/04/02 15:24:25;;;;;;;0.80;0.80;;;13.50;99.90;;;;;;5153550;27;20467;-77
2024/04/02 15:26:51;;;;;;;0.80;0.80;;;13.50;99.90;;;;;;5154605;27;20566;-73
2024/04/02 15:29:18;;;;;;;1.17;1.07;;;13.50;99.90;;;;;;5150741;27;20491;-74
2024/04/02 15:31:44;;;;;;;0.80;0.80;;;13.50;99.90;;;;;;5150366;27;20459;-75
2024/04/02 15:34:11;;;;;;;1.90;1.40;;;13.50;99.90;;;;;;5151465;27;20987;-74
2024/04/02 15:36:36;;;;;;;1.40;1.40;;;13.50;99.90;;;;;;5152550;27;20503;-73
2024/04/02 15:39:05;;;;;;;1.90;1.10;;;13.60;99.90;;;;;;5146200;27;20898;-73
2024/04/02 15:41:31;;;;;;;1.20;1.10;;;13.70;99.90;;;;;;5143501;27;20965;-73
2024/04/02 15:43:58;;;;;;;2.20;0.90;;;13.70;99.90;;;;;;5153594;27;20578;-74
2024/04/02 15:46:24;;;;;;;3.70;1.63;;;13.70;99.90;;;;;;5146671;27;20572;-73
2024/04/02 15:48:51;;;;;;;3.23;1.43;;;13.60;99.90;;;;;;5150541;27;20831;-73
2024/04/02 15:51:17;;;;;;;2.40;1.63;;;13.60;99.90;;;;;;5150907;27;20468;-73
2024/04/02 15:53:48;;;;;;;0.97;0.97;;;13.50;99.90;;;;;;5155295;27;20536;-74
2024/04/02 15:56:18;;;;;;;1.17;1.17;;;13.60;99.90;;;;;;5143830;27;20471;-73
2024/04/02 15:58:46;;;;;;;3.50;1.27;;;13.60;99.90;;;;;;5152870;27;20892;-72
2024/04/02 16:01:12;;;;;;;1.17;1.17;;;13.50;99.90;;;;;;5151123;27;20456;-74
2024/04/02 16:03:41;;;;;;;0.90;0.90;;;13.40;99.90;;;;;;5151277;27;20914;-74
2024/04/02 16:06:08;;;;;;;1.60;1.50;;;13.30;99.90;;;;;;5139102;27;20468;-73
2024/04/02 16:08:35;;;;;;;2.00;1.77;;;13.30;99.90;;;;;;5135484;27;20452;-75
2024/04/02 16:11:02;;;;;;;1.23;1.13;;;13.30;99.90;;;;;;5154534;27;20448;-74
2024/04/02 16:13:30;;;;;;;1.63;1.53;;;13.20;99.90;;;;;;5139000;27;20457;-75
2024/04/02 16:15:59;;;;;;;1.00;1.00;;;13.10;99.90;;;;;;5154700;27;20456;-75
2024/04/02 16:18:26;;;;;;;1.17;1.07;;;13.00;99.90;;;;;;5139792;27;20954;-75
2024/04/02 16:20:53;;;;;;;0.60;0.60;;;12.90;99.90;;;;;;5149353;27;20546;-74
2024/04/02 16:23:19;;;;;;;2.80;0.80;;;12.80;99.90;;;;;;5145976;27;20536;-74
2024/04/02 16:25:53;;;;;;;1.60;1.27;;;12.80;99.90;;;;;;5148251;27;20459;-74
2024/04/02 16:28:20;;;;;;;1.77;1.43;;;12.80;99.90;;;;;;5146350;27;20488;-74
2024/04/02 16:30:48;;;;;;;0.70;0.70;;;12.80;99.90;;;;;;5145464;27;20456;-74
2024/04/02 16:33:15;;;;;;;0.93;0.93;;;12.80;99.90;;;;;;5145274;27;20459;-74
2024/04/02 16:35:42;;;;;;;1.13;1.13;;;12.70;99.90;;;;;;5146088;27;20524;-75
2024/04/02 16:38:10;;;;;;;3.60;1.70;;;12.60;99.90;;;;;;5149492;27;20547;-75
2024/04/02 16:40:37;;;;;;;7.43;1.43;;;12.50;99.90;;;;;;5151598;27;20512;-75
2024/04/02 16:43:03;;;;;;;2.30;0.90;;;12.40;99.90;;;;;;5150152;27;20460;-75
2024/04/02 16:45:34;;;;;;;0.83;0.83;;;12.30;99.90;;;;;;5142647;27;20514;-75
2024/04/02 16:48:03;;;;;;;1.07;1.07;;;12.10;99.90;;;;;;5147026;27;20519;-75
2024/04/02 16:50:30;;;;;;;2.43;1.77;;;12.10;99.90;;;;;;5144141;27;20527;-74
2024/04/02 16:52:56;;;;;;;1.47;1.40;;;12.00;99.90;;;;;;5147989;27;20531;-74
2024/04/02 16:55:24;;;;;;;1.33;1.20;;;11.90;99.90;;;;;;5147275;27;20987;-74
2024/04/02 16:57:50;;;;;;;1.40;1.40;;;11.90;99.90;;;;;;5148923;27;20903;-74